Time;durP1;ratioP1;P1;durP2;ratioP2;P2;SDS_P1;SDS_P2;PMS_P1;PMS_P2;Temp;Humidity;BMP_temperature;BMP_pressure;BME280_temperature;BME280_humidity;BME280_pressure;Samples;Min_cycle;Max_cycle;Signal;HPM_P1;HPM_P2
2021/04/20 00:00:24;;;;;;;4.40;2.63;;;;;;;18.89;42.47;99560.28;2045812;28;20031;-68
2021/04/20 00:01:25;;;;;;;4.00;3.00;;;;;;;18.90;42.53;99563.84;2046423;28;20525;-68
2021/04/20 00:02:25;;;;;;;4.50;3.10;;;;;;;18.89;42.55;99565.75;2051110;28;20035;-68
2021/04/20 00:03:26;;;;;;;4.93;3.03;;;;;;;18.87;42.42;99566.91;2047239;28;20490;-68
2021/04/20 00:04:26;;;;;;;4.03;2.90;;;;;;;18.89;42.37;99559.41;2046523;28;20034;-67
2021/04/20 00:05:27;;;;;;;4.63;3.20;;;;;;;18.89;42.32;99554.81;2047709;28;20050;-68
2021/04/20 00:06:27;;;;;;;6.77;4.03;;;;;;;18.88;42.50;99558.53;2046185;28;20038;-68
2021/04/20 00:07:29;;;;;;;7.47;3.20;;;;;;;18.88;42.34;99560.44;2047475;28;20489;-68
2021/04/20 00:08:29;;;;;;;5.20;3.10;;;;;;;18.88;42.43;99560.44;2045794;28;20023;-68
2021/04/20 00:09:30;;;;;;;3.77;3.17;;;;;;;18.89;42.41;99562.13;2047288;28;20686;-68
2021/04/20 00:10:31;;;;;;;4.37;2.83;;;;;;;18.88;42.46;99563.16;2043414;28;20878;-68
2021/04/20 00:11:32;;;;;;;4.40;3.20;;;;;;;18.87;42.47;99558.72;2048474;28;20043;-68
2021/04/20 00:12:32;;;;;;;4.43;3.57;;;;;;;18.89;42.45;99564.84;2045322;28;20019;-67
2021/04/20 00:13:33;;;;;;;6.70;3.30;;;;;;;18.87;42.41;99556.00;2046741;28;20513;-68
2021/04/20 00:14:34;;;;;;;3.58;3.13;;;;;;;18.85;42.42;99548.81;2047078;28;20033;-67
2021/04/20 00:15:35;;;;;;;4.63;2.77;;;;;;;18.87;42.43;99561.47;2047016;28;20485;-68
2021/04/20 00:16:35;;;;;;;4.20;3.23;;;;;;;18.85;42.46;99557.00;2046447;29;20061;-68
2021/04/20 00:17:36;;;;;;;4.70;3.30;;;;;;;18.88;42.47;99560.44;2047367;28;20069;-68
2021/04/20 00:18:37;;;;;;;5.40;2.90;;;;;;;18.85;42.41;99554.25;2046375;28;20517;-67
2021/04/20 00:19:37;;;;;;;4.23;3.17;;;;;;;18.83;42.49;99556.28;2047019;29;20031;-68
2021/04/20 00:20:38;;;;;;;7.37;3.07;;;;;;;18.83;42.55;99555.44;2045676;28;20845;-68
2021/04/20 00:21:38;;;;;;;3.60;3.20;;;;;;;18.82;42.28;99548.28;2054819;28;20038;-68
2021/04/20 00:22:39;;;;;;;5.37;3.50;;;;;;;18.82;42.50;99560.06;2052384;28;20022;-68
2021/04/20 00:23:40;;;;;;;5.27;3.07;;;;;;;18.80;42.56;99556.63;2046934;28;20502;-67
2021/04/20 00:24:40;;;;;;;4.87;3.43;;;;;;;18.81;42.53;99565.66;2045878;28;21136;-68
2021/04/20 00:25:41;;;;;;;4.40;2.87;;;;;;;18.81;42.52;99561.09;2045108;29;20031;-67
2021/04/20 00:26:42;;;;;;;4.55;3.42;;;;;;;18.80;42.56;99555.78;2047012;28;20038;-68
2021/04/20 00:27:43;;;;;;;5.90;2.97;;;;;;;18.80;42.45;99556.63;2044123;28;20564;-67
2021/04/20 00:28:43;;;;;;;3.47;2.70;;;;;;;18.80;42.40;99556.63;2042962;28;20029;-68
2021/04/20 00:29:43;;;;;;;4.63;3.50;;;;;;;18.80;42.67;99551.16;2041450;28;20031;-67
2021/04/20 00:30:44;;;;;;;4.37;2.80;;;;;;;18.81;42.55;99547.44;2045328;28;20089;-67
2021/04/20 00:31:44;;;;;;;4.37;3.43;;;;;;;18.82;42.55;99543.69;2047018;28;20043;-68
2021/04/20 00:32:45;;;;;;;3.93;2.60;;;;;;;18.82;42.33;99549.13;2050461;28;20022;-68
2021/04/20 00:33:46;;;;;;;4.80;3.17;;;;;;;18.82;42.60;99549.13;2050992;28;20079;-67
2021/04/20 00:34:46;;;;;;;3.67;2.90;;;;;;;18.80;42.37;99545.72;2041752;28;20031;-68
2021/04/20 00:35:47;;;;;;;4.40;3.03;;;;;;;18.79;42.48;99549.47;2050356;28;20057;-68
2021/04/20 00:36:48;;;;;;;3.30;2.80;;;;;;;18.79;42.53;99549.47;2046998;28;20033;-68
2021/04/20 00:37:49;;;;;;;4.97;3.27;;;;;;;18.77;42.48;99551.50;2049942;28;20035;-68
2021/04/20 00:38:49;;;;;;;4.63;3.17;;;;;;;18.77;42.54;99546.03;2046084;28;20039;-68
2021/04/20 00:39:49;;;;;;;3.80;2.87;;;;;;;18.79;42.38;99546.75;2051747;28;20015;-68
2021/04/20 00:40:50;;;;;;;3.57;2.80;;;;;;;18.79;42.54;99544.00;2049015;28;20090;-68
2021/04/20 00:42:02;;;;;;;3.60;2.70;;;;;;;18.77;42.60;99543.31;2047207;28;20620;-67
2021/04/20 00:43:03;;;;;;;3.90;2.70;;;;;;;18.77;42.57;99551.50;2040789;29;20307;-68
2021/04/20 00:44:04;;;;;;;3.53;2.58;;;;;;;18.78;42.48;99542.28;2046837;29;20387;-68
2021/04/20 00:45:05;;;;;;;4.30;3.17;;;;;;;18.78;42.58;99545.00;2046510;28;20084;-67
2021/04/20 00:46:09;;;;;;;3.67;2.97;;;;;;;18.79;42.58;99546.75;2046106;28;20031;-68
2021/04/20 00:47:09;;;;;;;4.72;3.13;;;;;;;18.80;42.40;99540.25;2046812;28;20031;-68
2021/04/20 00:48:10;;;;;;;4.40;3.27;;;;;;;18.80;42.44;99542.97;2044027;28;20058;-68
2021/04/20 00:49:10;;;;;;;4.10;3.00;;;;;;;18.80;42.56;99540.25;2044408;28;20042;-68
2021/04/20 00:50:13;;;;;;;6.17;3.23;;;;;;;18.81;42.51;99535.63;2044027;28;20035;-68
2021/04/20 00:51:14;;;;;;;4.18;3.05;;;;;;;18.81;42.38;99531.06;2045199;28;20589;-68
2021/04/20 00:52:15;;;;;;;4.20;3.15;;;;;;;18.82;42.41;99538.22;2049466;28;20378;-67
2021/04/20 00:53:15;;;;;;;3.50;2.43;;;;;;;18.85;42.33;99542.50;2046901;28;20062;-68
2021/04/20 00:54:15;;;;;;;3.10;2.73;;;;;;;18.84;42.40;99533.44;2046114;29;20038;-67
2021/04/20 00:55:16;;;;;;;3.90;3.00;;;;;;;18.84;42.48;99536.19;2045875;29;20073;-68
2021/04/20 00:56:18;;;;;;;3.93;2.73;;;;;;;18.85;42.38;99537.88;2039196;29;20032;-67
2021/04/20 00:57:19;;;;;;;3.78;3.25;;;;;;;18.87;42.34;99539.63;2045318;29;20086;-68
2021/04/20 00:58:19;;;;;;;3.27;2.83;;;;;;;18.87;42.35;99534.16;2046542;28;20027;-68
2021/04/20 00:59:20;;;;;;;4.03;2.97;;;;;;;18.89;42.23;99532.09;2041824;29;20031;-68
2021/04/20 01:00:29;;;;;;;3.73;2.67;;;;;;;18.89;42.39;99537.56;2042509;28;20039;-68
2021/04/20 01:01:32;;;;;;;4.07;3.10;;;;;;;18.90;42.23;99531.09;2045715;29;20023;-68
2021/04/20 01:02:32;;;;;;;4.80;3.08;;;;;;;18.88;42.29;99531.25;2045713;28;20099;-68
2021/04/20 01:03:33;;;;;;;4.10;3.17;;;;;;;18.89;42.28;99532.09;2045836;28;20118;-68
2021/04/20 01:04:33;;;;;;;4.50;3.07;;;;;;;18.90;42.33;99529.22;2043808;29;20034;-68
2021/04/20 01:05:36;;;;;;;4.50;3.17;;;;;;;18.89;42.32;99537.56;2039024;29;20503;-68
2021/04/20 01:06:36;;;;;;;3.53;2.85;;;;;;;18.89;42.08;99529.34;2040162;29;20064;-68
2021/04/20 01:07:41;;;;;;;4.93;2.80;;;;;;;18.89;42.31;99538.44;2047600;28;20038;-67
2021/04/20 01:08:42;;;;;;;4.95;3.08;;;;;;;18.89;42.29;99532.09;2046755;28;20037;-68
2021/04/20 01:09:43;;;;;;;4.27;2.83;;;;;;;18.88;42.31;99536.69;2046665;28;20027;-68
2021/04/20 01:10:50;;;;;;;3.97;2.55;;;;;;;18.87;42.21;99534.16;2040940;28;20024;-68
2021/04/20 01:11:50;;;;;;;4.97;3.08;;;;;;;18.85;42.31;99535.16;2044244;29;20197;-68
2021/04/20 01:12:51;;;;;;;3.60;2.60;;;;;;;18.87;42.32;99529.53;2045933;28;20035;-68
2021/04/20 01:13:52;;;;;;;4.37;3.00;;;;;;;18.85;42.24;99532.41;2046089;28;20553;-67
2021/04/20 01:14:52;;;;;;;4.47;3.00;;;;;;;18.87;42.29;99535.00;2046531;28;20050;-68
2021/04/20 01:15:54;;;;;;;3.10;2.33;;;;;;;18.86;42.39;99530.53;2040813;29;20102;-68
2021/04/20 01:16:54;;;;;;;4.03;2.70;;;;;;;18.85;42.29;99531.56;2043799;28;20039;-68
2021/04/20 01:17:54;;;;;;;4.30;2.80;;;;;;;18.84;42.41;99530.72;2053537;28;20058;-68
2021/04/20 01:18:55;;;;;;;3.57;2.80;;;;;;;18.85;42.36;99535.16;2053791;28;20061;-68
2021/04/20 01:20:00;;;;;;;7.50;3.13;;;;;;;18.83;42.22;99529.00;2046566;28;20042;-68
2021/04/20 01:21:08;;;;;;;3.30;2.60;;;;;;;18.81;42.28;99533.78;2041705;28;20042;-68
2021/04/20 01:22:13;;;;;;;3.40;2.58;;;;;;;18.80;42.34;99529.31;2048987;28;20482;-67
2021/04/20 01:23:19;;;;;;;4.20;2.72;;;;;;;18.82;42.25;99532.75;2040217;29;20042;-68
2021/04/20 01:24:27;;;;;;;4.25;2.88;;;;;;;18.82;42.33;99531.91;2046311;28;20038;-68
2021/04/20 01:25:28;;;;;;;5.03;3.00;;;;;;;18.79;42.31;99522.16;2044967;28;20100;-68
2021/04/20 01:26:32;;;;;;;3.93;3.07;;;;;;;18.81;42.38;99520.13;2046517;28;20878;-68
2021/04/20 01:27:34;;;;;;;3.35;2.70;;;;;;;18.80;42.43;99523.88;2046132;28;20057;-68
2021/04/20 01:28:35;;;;;;;4.07;2.88;;;;;;;18.80;42.42;99528.47;2044815;28;20035;-68
2021/04/20 01:29:36;;;;;;;3.38;2.55;;;;;;;18.79;42.37;99527.63;2042822;28;20035;-68
2021/04/20 01:30:36;;;;;;;4.67;2.20;;;;;;;18.80;42.27;99521.13;2040551;28;20043;-67
2021/04/20 01:31:40;;;;;;;3.47;2.70;;;;;;;18.80;42.32;99523.00;2048314;28;20027;-67
2021/04/20 01:32:42;;;;;;;3.30;2.53;;;;;;;18.81;42.27;99520.13;2046511;28;20079;-68
2021/04/20 01:33:44;;;;;;;5.43;3.15;;;;;;;18.84;42.31;99525.25;2045884;29;20026;-68
2021/04/20 01:34:45;;;;;;;3.30;3.00;;;;;;;18.84;42.33;99518.94;2044802;28;20031;-68
2021/04/20 01:35:45;;;;;;;4.33;2.93;;;;;;;18.82;42.34;99524.56;2043640;29;20053;-68
2021/04/20 01:36:46;;;;;;;4.30;3.23;;;;;;;18.81;42.41;99528.31;2046296;28;20545;-68
2021/04/20 01:37:46;;;;;;;4.83;2.80;;;;;;;18.79;42.36;99526.75;2043344;28;20054;-68
2021/04/20 01:38:49;;;;;;;5.87;3.57;;;;;;;18.80;42.30;99523.00;2042917;29;20038;-68
2021/04/20 01:39:50;;;;;;;5.00;2.92;;;;;;;18.80;42.18;99520.28;2038931;29;20032;-68
2021/04/20 01:40:53;;;;;;;4.25;2.83;;;;;;;18.77;42.37;99518.72;2044930;29;20035;-68
2021/04/20 01:41:54;;;;;;;3.60;2.40;;;;;;;18.79;42.39;99516.69;2046838;28;20085;-68
2021/04/20 01:42:55;;;;;;;4.83;3.13;;;;;;;18.79;42.24;99524.88;2046539;28;20103;-68
2021/04/20 01:43:57;;;;;;;3.55;2.83;;;;;;;18.80;42.39;99515.66;2046788;29;20063;-68
2021/04/20 01:44:58;;;;;;;4.45;2.60;;;;;;;18.80;42.39;99521.13;2043847;29;20788;-68
2021/04/20 01:45:58;;;;;;;2.43;2.00;;;;;;;18.79;42.35;99516.69;2046539;28;20408;-68
2021/04/20 01:46:59;;;;;;;3.20;2.63;;;;;;;18.80;42.29;99518.41;2045817;28;20039;-68
2021/04/20 01:48:00;;;;;;;2.90;2.57;;;;;;;18.81;42.34;99520.13;2045574;29;20151;-68
2021/04/20 01:49:00;;;;;;;4.67;2.93;;;;;;;18.82;42.28;99520.97;2045935;29;20039;-68
2021/04/20 01:50:01;;;;;;;3.93;3.10;;;;;;;18.83;42.11;99517.22;2045188;28;20286;-68
2021/04/20 01:51:02;;;;;;;4.60;2.67;;;;;;;18.82;42.24;99521.84;2046572;28;20402;-68
2021/04/20 01:52:03;;;;;;;3.88;2.90;;;;;;;18.82;42.09;99519.09;2046024;28;20062;-68
2021/04/20 01:53:03;;;;;;;3.40;2.57;;;;;;;18.83;42.12;99518.06;2046129;28;20085;-68
2021/04/20 01:54:04;;;;;;;4.27;2.63;;;;;;;18.83;42.19;99518.06;2045758;28;20152;-68
2021/04/20 01:55:05;;;;;;;3.60;3.10;;;;;;;18.85;42.17;99521.50;2043640;28;20655;-67
2021/04/20 01:56:09;;;;;;;3.40;2.42;;;;;;;18.87;42.19;99520.50;2042765;28;20039;-68
2021/04/20 01:57:11;;;;;;;3.95;2.30;;;;;;;18.88;42.05;99519.47;2051269;28;20472;-68
2021/04/20 01:58:12;;;;;;;4.50;2.40;;;;;;;18.90;42.01;99520.16;2048016;28;20103;-67
2021/04/20 01:59:15;;;;;;;3.60;3.03;;;;;;;18.91;41.95;99513.66;2045561;29;20070;-67
2021/04/20 02:00:18;;;;;;;4.03;2.63;;;;;;;18.91;41.83;99511.78;2042615;28;20035;-67
2021/04/20 02:01:26;;;;;;;3.15;2.85;;;;;;;18.91;42.09;99513.66;2044342;28;20031;-68
2021/04/20 02:02:26;;;;;;;3.17;2.78;;;;;;;18.92;41.99;99509.94;2046024;29;20030;-68
2021/04/20 02:03:28;;;;;;;3.13;2.20;;;;;;;18.92;41.91;99515.41;2045609;28;20027;-68
2021/04/20 02:04:29;;;;;;;3.80;2.60;;;;;;;18.90;42.16;99512.81;2046144;29;20780;-68
2021/04/20 02:05:30;;;;;;;3.45;2.40;;;;;;;18.90;41.96;99523.75;2046358;28;20089;-68
2021/04/20 02:06:31;;;;;;;3.23;2.37;;;;;;;18.89;41.92;99515.69;2043314;28;20035;-68
2021/04/20 02:07:32;;;;;;;3.77;2.73;;;;;;;18.90;42.05;99511.97;2046178;28;20046;-68
2021/04/20 02:08:33;;;;;;;3.57;2.93;;;;;;;18.89;42.06;99518.44;2047353;28;20026;-68
2021/04/20 02:09:33;;;;;;;3.00;2.70;;;;;;;18.90;42.04;99517.44;2048525;28;20042;-67
2021/04/20 02:10:34;;;;;;;4.13;2.87;;;;;;;18.89;41.97;99515.69;2043934;29;20125;-68
2021/04/20 02:11:34;;;;;;;3.03;2.37;;;;;;;18.89;42.07;99518.44;2046530;28;20479;-68
2021/04/20 02:12:36;;;;;;;3.73;2.63;;;;;;;18.89;42.12;99510.25;2045880;28;20034;-68
2021/04/20 02:13:37;;;;;;;3.50;2.70;;;;;;;18.87;42.14;99515.03;2042968;29;20042;-68
2021/04/20 02:14:38;;;;;;;3.80;2.83;;;;;;;18.87;42.16;99515.88;2045890;29;20102;-68
2021/04/20 02:15:39;;;;;;;2.78;2.53;;;;;;;18.85;42.08;99505.13;2046463;28;20057;-68
2021/04/20 02:16:41;;;;;;;3.77;2.90;;;;;;;18.87;41.95;99515.03;2045746;28;20068;-68
2021/04/20 02:17:43;;;;;;;3.17;2.83;;;;;;;18.85;42.10;99515.19;2046055;28;20406;-68
2021/04/20 02:18:54;;;;;;;3.60;2.65;;;;;;;18.82;42.11;99513.63;2046199;28;20043;-68
2021/04/20 02:19:54;;;;;;;5.13;2.95;;;;;;;18.84;42.05;99510.75;2046212;29;20101;-68
2021/04/20 02:20:57;;;;;;;3.07;2.43;;;;;;;18.82;42.16;99515.53;2053474;28;20030;-68
2021/04/20 02:21:58;;;;;;;4.53;2.92;;;;;;;18.82;42.06;99516.38;2053081;28;20022;-68
2021/04/20 02:22:58;;;;;;;3.33;2.47;;;;;;;18.81;42.28;99514.66;2046512;28;20099;-68
2021/04/20 02:23:59;;;;;;;3.80;3.00;;;;;;;18.82;42.16;99519.09;2044680;29;20110;-68
2021/04/20 02:25:00;;;;;;;3.50;2.70;;;;;;;18.82;42.08;99516.38;2045692;29;20023;-67
2021/04/20 02:26:06;;;;;;;3.53;2.80;;;;;;;18.80;42.22;99512.09;2044979;29;20035;-68
2021/04/20 02:27:07;;;;;;;3.42;2.75;;;;;;;18.79;42.14;99513.97;2045878;28;20384;-68
2021/04/20 02:28:08;;;;;;;3.28;2.45;;;;;;;18.80;42.19;99512.94;2047996;28;20089;-68
2021/04/20 02:29:10;;;;;;;3.87;3.03;;;;;;;18.80;42.11;99518.41;2044540;28;20118;-68
2021/04/20 02:30:12;;;;;;;3.60;2.70;;;;;;;18.80;42.20;99510.22;2046463;29;20035;-68
2021/04/20 02:31:13;;;;;;;3.47;2.28;;;;;;;18.81;42.14;99511.06;2041880;29;20042;-68
2021/04/20 02:32:14;;;;;;;3.33;2.33;;;;;;;18.80;42.19;99512.94;2045614;29;20067;-68
2021/04/20 02:33:14;;;;;;;3.10;2.38;;;;;;;18.79;42.23;99516.69;2045780;29;20035;-68
2021/04/20 02:34:14;;;;;;;3.33;2.80;;;;;;;18.79;42.28;99513.97;2046622;28;20030;-68
2021/04/20 02:35:17;;;;;;;3.83;2.60;;;;;;;18.78;42.29;99509.50;2038363;29;20824;-68
2021/04/20 02:36:18;;;;;;;2.80;2.50;;;;;;;18.80;42.16;99512.09;2045049;29;20031;-67
2021/04/20 02:37:19;;;;;;;3.25;2.47;;;;;;;18.81;42.18;99511.06;2045787;28;20793;-67
2021/04/20 02:38:19;;;;;;;5.03;2.57;;;;;;;18.82;42.00;99519.09;2038460;29;20408;-68
2021/04/20 02:39:21;;;;;;;3.90;2.20;;;;;;;18.82;42.19;99516.38;2044771;28;20054;-67
2021/04/20 02:40:24;;;;;;;3.78;2.72;;;;;;;18.80;42.12;99517.56;2041641;28;20031;-68
2021/04/20 02:41:26;;;;;;;2.92;2.30;;;;;;;18.79;42.17;99518.56;2042754;28;20042;-68
2021/04/20 02:42:27;;;;;;;;;;;;;;;18.75;42.17;99519.88;2046587;28;20035;-68
2021/04/20 02:43:28;;;;;;;4.85;3.00;;;;;;;18.75;42.22;99519.88;2045864;29;19921;-67
2021/04/20 02:44:29;;;;;;;4.60;3.45;;;;;;;18.76;42.32;99521.63;2045957;28;20030;-67
2021/04/20 02:45:32;;;;;;;4.37;2.43;;;;;;;18.76;42.31;99513.41;2046268;29;20522;-68
2021/04/20 02:46:34;;;;;;;3.67;2.70;;;;;;;18.77;42.17;99524.19;2045867;29;20075;-68
2021/04/20 02:47:36;;;;;;;3.58;2.55;;;;;;;18.78;42.20;99525.03;2052589;28;20684;-68
2021/04/20 02:48:37;;;;;;;3.72;2.78;;;;;;;18.78;42.28;99517.69;2052329;28;20063;-68
2021/04/20 02:49:38;;;;;;;3.80;2.50;;;;;;;18.78;42.29;99520.44;2046036;28;20047;-68
2021/04/20 02:50:41;;;;;;;3.90;2.43;;;;;;;18.80;42.21;99518.41;2046363;28;20026;-68
2021/04/20 02:51:43;;;;;;;2.97;2.45;;;;;;;18.80;42.15;99523.00;2044363;28;20039;-68
2021/04/20 02:52:47;;;;;;;3.47;2.78;;;;;;;18.80;42.05;99523.88;2045828;29;20351;-68
2021/04/20 02:53:48;;;;;;;2.83;2.05;;;;;;;18.81;41.94;99519.25;2046210;28;20031;-68
2021/04/20 02:54:48;;;;;;;3.53;2.22;;;;;;;18.81;42.09;99514.66;2046282;28;20093;-68
2021/04/20 02:55:49;;;;;;;4.17;2.87;;;;;;;18.82;42.19;99521.84;2046208;29;20461;-68
2021/04/20 02:56:50;;;;;;;3.17;2.57;;;;;;;18.84;42.05;99522.53;2046127;29;20023;-68
2021/04/20 02:57:54;;;;;;;3.75;2.53;;;;;;;18.84;42.01;99519.81;2043961;28;20681;-68
2021/04/20 02:58:59;;;;;;;3.75;2.70;;;;;;;18.85;41.96;99513.31;2045882;28;20131;-68
2021/04/20 03:00:00;;;;;;;4.18;2.67;;;;;;;18.88;41.91;99514.00;2043543;29;20082;-68
2021/04/20 03:01:07;;;;;;;2.87;2.03;;;;;;;18.88;41.94;99509.41;2041400;28;20031;-68
2021/04/20 03:02:09;;;;;;;4.38;2.72;;;;;;;18.88;42.02;99503.09;2040450;28;20031;-68
2021/04/20 03:03:12;;;;;;;3.78;2.63;;;;;;;18.87;41.99;99513.16;2038688;29;20697;-68
2021/04/20 03:04:14;;;;;;;3.50;2.28;;;;;;;18.87;41.92;99512.31;2045855;28;20857;-68
2021/04/20 03:05:16;;;;;;;2.97;2.42;;;;;;;18.89;41.89;99507.50;2042651;29;20028;-68
2021/04/20 03:06:18;;;;;;;3.88;2.55;;;;;;;18.89;42.04;99511.13;2043845;29;20030;-68
2021/04/20 03:07:19;;;;;;;2.95;2.22;;;;;;;18.90;41.93;99509.25;2045806;28;20031;-68
2021/04/20 03:08:20;;;;;;;3.60;2.58;;;;;;;18.91;41.81;99510.94;2046671;28;20035;-68
2021/04/20 03:09:20;;;;;;;2.67;2.10;;;;;;;18.90;41.89;99509.25;2045882;28;20023;-68
2021/04/20 03:10:21;;;;;;;3.23;2.27;;;;;;;18.92;41.74;99509.94;2042453;29;20095;-68
2021/04/20 03:11:39;;;;;;;3.33;2.75;;;;;;;18.89;41.90;99499.31;2047011;28;20031;-68
2021/04/20 03:12:40;;;;;;;2.80;2.40;;;;;;;18.88;42.01;99509.41;2045064;29;20039;-68
2021/04/20 03:13:45;;;;;;;3.38;2.53;;;;;;;18.87;42.00;99517.78;2042455;29;20110;-68
2021/04/20 03:14:45;;;;;;;2.72;2.33;;;;;;;18.89;41.90;99504.78;2042872;28;20628;-67
2021/04/20 03:15:47;;;;;;;4.10;2.70;;;;;;;18.89;41.84;99515.69;2039987;28;20825;-67
2021/04/20 03:16:48;;;;;;;4.07;2.92;;;;;;;18.88;41.92;99508.53;2045754;28;20090;-68
2021/04/20 03:17:49;;;;;;;3.00;2.30;;;;;;;18.87;42.04;99512.31;2045146;29;20082;-68
2021/04/20 03:18:49;;;;;;;4.35;2.95;;;;;;;18.83;41.97;99515.34;2045414;29;20032;-68
2021/04/20 03:19:50;;;;;;;3.07;2.60;;;;;;;18.83;42.08;99507.16;2043572;29;20509;-68
2021/04/20 03:20:50;;;;;;;2.83;2.27;;;;;;;18.83;41.95;99514.50;2045812;28;20030;-68
2021/04/20 03:21:51;;;;;;;3.17;2.40;;;;;;;18.82;42.12;99510.06;2046475;28;20110;-68
2021/04/20 03:22:55;;;;;;;2.40;1.95;;;;;;;18.83;41.98;99500.84;2039077;29;20103;-68
2021/04/20 03:23:56;;;;;;;3.53;2.55;;;;;;;18.83;42.12;99511.75;2045586;28;20031;-68
2021/04/20 03:25:00;;;;;;;2.47;2.05;;;;;;;18.82;42.02;99513.63;2046090;28;20038;-68
2021/04/20 03:26:03;;;;;;;3.55;2.30;;;;;;;18.82;42.06;99518.25;2045875;28;20090;-68
2021/04/20 03:27:06;;;;;;;13.15;2.78;;;;;;;18.80;42.11;99512.09;2044417;29;20039;-68
2021/04/20 03:28:08;;;;;;;2.88;2.25;;;;;;;18.81;41.95;99513.78;2040204;29;20023;-68
2021/04/20 03:29:10;;;;;;;3.10;2.40;;;;;;;18.80;42.14;99512.94;2041442;28;20034;-68
2021/04/20 03:30:13;;;;;;;;;;;;;;;18.74;42.24;99508.09;2043385;29;20355;-68
2021/04/20 03:31:13;;;;;;;3.70;2.53;;;;;;;18.76;42.10;99513.41;2043906;28;19922;-67
2021/04/20 03:32:14;;;;;;;3.57;2.50;;;;;;;18.76;42.09;99511.53;2044589;29;20038;-68
2021/04/20 03:33:24;;;;;;;3.27;2.50;;;;;;;18.75;42.17;99508.97;2047655;28;20114;-68
2021/04/20 03:34:41;;;;;;;2.35;2.15;;;;;;;18.76;42.29;99505.22;2044821;28;20039;-68
2021/04/20 03:36:03;;;;;;;3.70;2.13;;;;;;;18.74;42.17;99508.09;2045101;29;20146;-68
2021/04/20 03:37:11;;;;;;;2.50;2.25;;;;;;;18.73;42.11;99506.38;2045912;28;20130;-68
2021/04/20 03:38:31;;;;;;;2.67;2.20;;;;;;;18.74;42.07;99505.38;2045304;28;20046;-68
2021/04/20 03:39:38;;;;;;;2.95;2.45;;;;;;;18.77;42.22;99504.22;2045880;28;20031;-68
2021/04/20 03:40:46;;;;;;;3.70;2.20;;;;;;;18.78;42.12;99504.06;2046145;28;20125;-68
2021/04/20 03:42:04;;;;;;;3.00;2.45;;;;;;;18.78;42.14;99506.78;2044188;28;20522;-68
2021/04/20 03:43:12;;;;;;;3.00;2.03;;;;;;;18.77;42.22;99496.88;2042617;28;20078;-68
2021/04/20 03:44:17;;;;;;;2.88;2.38;;;;;;;18.78;42.13;99493.13;2037851;29;20418;-68
2021/04/20 03:45:22;;;;;;;2.88;2.10;;;;;;;18.78;42.16;99506.78;2040901;29;20030;-68
2021/04/20 03:46:28;;;;;;;2.65;2.22;;;;;;;18.76;42.17;99503.34;2045977;28;20042;-68
2021/04/20 03:47:37;;;;;;;2.65;2.38;;;;;;;18.77;41.98;99502.34;2050554;28;20046;-68
2021/04/20 03:48:44;;;;;;;2.50;2.00;;;;;;;18.76;42.14;99506.09;2045325;28;20082;-67
2021/04/20 03:49:48;;;;;;;4.00;2.50;;;;;;;18.77;42.20;99502.34;2041024;28;20073;-68
2021/04/20 03:51:01;;;;;;;2.90;2.22;;;;;;;18.77;42.20;99498.78;2045461;28;20031;-68
2021/04/20 03:52:07;;;;;;;3.38;2.30;;;;;;;18.78;42.08;99493.13;2042166;29;20047;-68
2021/04/20 03:53:14;;;;;;;3.60;2.30;;;;;;;18.77;42.13;99496.88;2041743;28;20032;-68
2021/04/20 03:54:16;;;;;;;2.67;2.13;;;;;;;18.79;41.95;99499.44;2045161;29;20482;-68
2021/04/20 03:55:20;;;;;;;2.95;2.08;;;;;;;18.79;42.14;99500.31;2047426;28;20126;-68
2021/04/20 03:56:28;;;;;;;5.45;2.35;;;;;;;18.78;41.91;99493.13;2047140;29;20027;-68
2021/04/20 03:57:32;;;;;;;2.97;2.05;;;;;;;18.80;41.95;99492.97;2045597;28;20526;-68
2021/04/20 03:58:37;;;;;;;3.10;2.30;;;;;;;18.80;42.02;99495.72;2046568;28;20094;-67
2021/04/20 03:59:38;;;;;;;3.88;2.85;;;;;;;18.82;42.25;99494.53;2046772;28;20106;-68
2021/04/20 04:00:39;;;;;;;2.38;2.17;;;;;;;18.81;41.97;99484.63;2046876;28;20110;-68
2021/04/20 04:01:43;;;;;;;3.00;2.33;;;;;;;18.82;41.92;99491.78;2038144;28;20043;-68
2021/04/20 04:02:47;;;;;;;3.40;2.25;;;;;;;18.83;41.94;99488.03;2043738;29;20065;-68
2021/04/20 04:03:49;;;;;;;2.50;1.92;;;;;;;18.85;41.99;99487.88;2040030;29;20123;-68
2021/04/20 04:04:52;;;;;;;2.40;1.90;;;;;;;18.83;41.87;99479.84;2045682;29;20030;-67
2021/04/20 04:05:54;;;;;;;2.72;2.05;;;;;;;18.87;41.85;99485.00;2048096;28;20045;-68
2021/04/20 04:06:55;;;;;;;2.80;2.15;;;;;;;18.89;41.77;99488.41;2045964;28;20075;-68
2021/04/20 04:07:58;;;;;;;3.58;2.13;;;;;;;18.89;42.01;99483.81;2045623;28;20769;-68
2021/04/20 04:09:02;;;;;;;3.20;2.25;;;;;;;18.89;41.85;99489.28;2046835;29;20877;-68
2021/04/20 04:10:04;;;;;;;2.45;2.03;;;;;;;18.91;41.89;99483.63;2042298;28;20058;-68
2021/04/20 04:11:10;;;;;;;2.53;1.90;;;;;;;18.89;41.77;99482.94;2043429;28;20039;-67
2021/04/20 04:12:14;;;;;;;2.67;2.00;;;;;;;18.90;41.92;99484.66;2045848;29;20034;-68
2021/04/20 04:13:17;;;;;;;2.85;2.22;;;;;;;18.90;41.77;99490.13;2043763;28;20032;-67
2021/04/20 04:14:21;;;;;;;2.63;2.13;;;;;;;18.89;41.82;99483.81;2042291;29;20019;-68
2021/04/20 04:15:22;;;;;;;3.47;2.55;;;;;;;18.91;41.76;99486.38;2040737;28;20032;-68
2021/04/20 04:16:24;;;;;;;3.25;2.22;;;;;;;18.90;41.87;99484.66;2045165;29;20099;-68
2021/04/20 04:17:25;;;;;;;3.42;2.35;;;;;;;18.89;41.71;99478.34;2054324;28;20035;-68
2021/04/20 04:18:29;;;;;;;3.47;1.92;;;;;;;18.88;41.72;99489.44;2054259;28;20022;-68
2021/04/20 04:19:43;;;;;;;3.83;2.25;;;;;;;18.87;41.92;99485.00;2046968;28;20034;-68
2021/04/20 04:20:46;;;;;;;2.60;1.95;;;;;;;18.86;41.82;99484.13;2044381;29;20026;-68
2021/04/20 04:21:54;;;;;;;3.40;2.42;;;;;;;18.83;41.94;99485.31;2051791;28;20740;-67
2021/04/20 04:23:07;;;;;;;2.75;2.30;;;;;;;18.84;41.86;99487.03;2039485;29;20844;-68
2021/04/20 04:24:10;;;;;;;3.17;2.15;;;;;;;18.84;42.10;99489.75;2038995;29;20032;-68
2021/04/20 04:25:20;;;;;;;3.53;2.45;;;;;;;18.82;42.01;99483.59;2044181;28;20043;-68
2021/04/20 04:26:31;;;;;;;2.35;2.15;;;;;;;18.81;41.98;99486.47;2047363;28;20035;-68
2021/04/20 04:27:39;;;;;;;3.33;2.40;;;;;;;18.78;42.09;99482.22;2046580;28;20031;-68
2021/04/20 04:28:44;;;;;;;3.10;2.33;;;;;;;18.80;41.98;99479.31;2049903;28;20031;-68
2021/04/20 04:29:47;;;;;;;2.58;2.10;;;;;;;18.80;42.03;99479.31;2046320;28;20054;-68
2021/04/20 04:30:49;;;;;;;3.08;2.05;;;;;;;18.79;42.20;99478.47;2046518;29;20027;-68
2021/04/20 04:31:50;;;;;;;4.95;2.15;;;;;;;18.79;42.00;99486.66;2046205;28;20094;-68
2021/04/20 04:32:52;;;;;;;3.33;2.60;;;;;;;18.80;41.97;99477.44;2043830;28;20023;-68
2021/04/20 04:33:52;;;;;;;2.60;2.17;;;;;;;18.78;41.96;99479.47;2046040;28;20043;-68
2021/04/20 04:34:54;;;;;;;3.77;2.50;;;;;;;18.78;42.14;99487.66;2046884;29;20062;-68
2021/04/20 04:35:55;;;;;;;2.63;2.05;;;;;;;18.79;42.05;99483.94;2044322;28;20138;-68
2021/04/20 04:36:56;;;;;;;3.50;2.47;;;;;;;18.79;42.02;99486.66;2047187;29;20556;-68
2021/04/20 04:37:57;;;;;;;3.50;2.37;;;;;;;18.79;42.13;99489.41;2044863;29;20422;-68
2021/04/20 04:38:58;;;;;;;2.47;2.00;;;;;;;18.79;41.89;99488.50;2046999;28;20275;-67
2021/04/20 04:39:58;;;;;;;2.50;2.20;;;;;;;18.79;41.95;99486.66;2047359;28;20122;-68
2021/04/20 04:41:00;;;;;;;3.03;2.43;;;;;;;18.78;41.87;99481.34;2045747;28;20514;-68
2021/04/20 04:42:01;;;;;;;;;;;;;;;18.73;41.96;99481.81;2045214;28;20031;-68
2021/04/20 04:43:01;;;;;;;2.83;2.25;;;;;;;18.75;42.13;99477.03;2046538;28;20091;-68
2021/04/20 04:44:02;;;;;;;2.80;2.20;;;;;;;18.76;42.06;99478.78;2045307;28;20121;-68
2021/04/20 04:45:06;;;;;;;3.03;2.30;;;;;;;18.77;42.15;99483.25;2047823;28;20459;-68
2021/04/20 04:46:06;;;;;;;3.15;2.53;;;;;;;18.77;41.93;99485.97;2049367;28;20456;-68
2021/04/20 04:47:07;;;;;;;2.60;2.13;;;;;;;18.76;42.09;99484.25;2047062;28;20161;-68
2021/04/20 04:48:12;;;;;;;3.58;2.20;;;;;;;18.75;42.06;99479.78;2047116;28;20027;-68
2021/04/20 04:49:15;;;;;;;2.70;2.22;;;;;;;18.75;42.05;99493.44;2046656;28;20043;-68
2021/04/20 04:50:15;;;;;;;2.40;1.80;;;;;;;18.75;42.15;99492.56;2046635;28;20027;-67
2021/04/20 04:51:17;;;;;;;3.27;2.13;;;;;;;18.75;42.24;99498.88;2044438;28;20043;-68
2021/04/20 04:52:18;;;;;;;2.65;2.03;;;;;;;18.76;42.26;99495.16;2046941;29;20034;-68
2021/04/20 04:53:20;;;;;;;2.72;2.08;;;;;;;18.77;42.18;99496.03;2046898;28;20035;-67
2021/04/20 04:54:21;;;;;;;3.13;2.40;;;;;;;18.77;41.93;99491.44;2046735;28;20114;-68